Time;durP1;ratioP1;P1;durP2;ratioP2;P2;SDS_P1;SDS_P2;PMS_P1;PMS_P2;Temp;Humidity;BMP_temperature;BMP_pressure;BME280_temperature;BME280_humidity;BME280_pressure;Samples;Min_cycle;Max_cycle;Signal;HPM_P1;HPM_P2
2022/10/24 00:00:08;;;;;;;15.65;2.75;;;13.60;99.90;;;;;;5094053;28;20086;-43
2022/10/24 00:02:34;;;;;;;8.23;2.20;;;13.60;99.90;;;;;;5094146;28;20044;-43
2022/10/24 00:05:00;;;;;;;26.23;2.20;;;13.60;99.90;;;;;;5094536;28;20052;-43
2022/10/24 00:07:26;;;;;;;8.23;1.70;;;13.60;99.90;;;;;;5094541;28;20466;-43
2022/10/24 00:09:52;;;;;;;10.18;2.10;;;13.60;99.90;;;;;;5093906;28;20170;-43
2022/10/24 00:12:19;;;;;;;24.63;2.55;;;13.60;99.90;;;;;;5093882;28;20047;-42
2022/10/24 00:14:45;;;;;;;7.13;1.73;;;13.70;99.90;;;;;;5093844;28;20040;-43
2022/10/24 00:17:10;;;;;;;17.10;3.33;;;13.70;99.90;;;;;;5093781;28;20063;-42
2022/10/24 00:19:36;;;;;;;7.80;1.60;;;13.70;99.90;;;;;;5093233;28;20478;-43
2022/10/24 00:22:02;;;;;;;16.95;1.77;;;13.70;99.90;;;;;;5093845;28;20134;-42
2022/10/24 00:24:28;;;;;;;13.07;1.63;;;13.70;99.90;;;;;;5093445;28;20474;-42
2022/10/24 00:26:53;;;;;;;13.02;2.50;;;13.70;99.90;;;;;;5093751;28;20040;-42
2022/10/24 00:29:19;;;;;;;10.02;1.73;;;13.60;99.90;;;;;;5093728;28;20051;-42
2022/10/24 00:31:45;;;;;;;7.28;1.70;;;13.60;99.90;;;;;;5093117;28;20059;-42
2022/10/24 00:34:11;;;;;;;10.88;2.08;;;13.50;99.90;;;;;;5093643;28;20478;-42
2022/10/24 00:36:37;;;;;;;7.68;1.67;;;13.50;99.90;;;;;;5093085;28;20055;-42
2022/10/24 00:39:03;;;;;;;8.15;1.58;;;13.50;99.90;;;;;;5094344;28;20091;-42
2022/10/24 00:41:33;;;;;;;13.57;1.55;;;13.40;99.90;;;;;;5094203;28;20048;-42
2022/10/24 00:44:18;;;;;;;8.73;2.00;;;13.50;99.90;;;;;;5093604;28;20040;-42
2022/10/24 00:47:06;;;;;;;11.98;2.10;;;13.50;99.90;;;;;;5093595;28;20490;-42
2022/10/24 00:49:52;;;;;;;8.90;1.80;;;13.50;99.90;;;;;;5093568;28;20044;-42
2022/10/24 00:52:24;;;;;;;19.23;1.38;;;13.50;99.90;;;;;;5092335;28;20097;-42
2022/10/24 00:54:52;;;;;;;5.68;1.63;;;13.60;99.90;;;;;;5097131;28;20087;-42
2022/10/24 00:57:32;;;;;;;6.22;1.90;;;13.60;99.90;;;;;;5097352;28;20496;-42
2022/10/24 01:00:13;;;;;;;15.20;1.92;;;13.70;99.90;;;;;;5096464;28;20052;-42
2022/10/24 01:02:38;;;;;;;7.88;1.75;;;13.70;99.90;;;;;;5097916;28;20101;-42
2022/10/24 01:05:06;;;;;;;12.13;1.77;;;13.70;99.90;;;;;;5096625;28;20048;-42
2022/10/24 01:07:41;;;;;;;8.57;1.67;;;13.70;99.90;;;;;;5079396;28;20040;-42
2022/10/24 01:10:31;;;;;;;11.90;2.00;;;13.60;99.90;;;;;;5098051;28;20047;-42
2022/10/24 01:12:59;;;;;;;10.27;1.40;;;13.50;99.90;;;;;;5098063;28;20466;-41
2022/10/24 01:15:58;;;;;;;7.57;1.33;;;13.40;99.90;;;;;;5097147;28;20048;-42
2022/10/24 01:18:51;;;;;;;7.43;1.88;;;13.30;99.90;;;;;;5077921;28;20052;-41
2022/10/24 01:21:42;;;;;;;5.40;1.50;;;13.30;99.90;;;;;;5086879;28;20060;-42
2022/10/24 01:24:26;;;;;;;19.88;2.35;;;13.20;99.90;;;;;;5096978;28;20051;-41
2022/10/24 01:27:10;;;;;;;10.95;1.83;;;13.10;99.90;;;;;;5096878;28;20067;-41
2022/10/24 01:30:02;;;;;;;8.60;1.58;;;13.10;99.90;;;;;;5096872;28;20048;-42
2022/10/24 01:33:02;;;;;;;13.45;2.15;;;13.10;99.90;;;;;;5096915;28;20051;-41
2022/10/24 01:35:34;;;;;;;11.82;1.80;;;13.20;99.90;;;;;;5096735;28;20055;-41
2022/10/24 01:38:18;;;;;;;5.75;1.42;;;13.20;99.90;;;;;;5096311;28;20099;-41
2022/10/24 01:40:44;;;;;;;;;;;13.30;99.90;;;;;;5097680;28;20124;-41
2022/10/24 01:43:12;;;;;;;13.60;2.50;;;13.40;99.90;;;;;;5096483;28;19943;-41
2022/10/24 01:45:44;;;;;;;19.55;2.08;;;13.50;99.90;;;;;;5096550;28;20048;-41
2022/10/24 01:48:14;;;;;;;9.05;1.50;;;13.60;99.90;;;;;;5096535;28;20094;-42
2022/10/24 01:50:44;;;;;;;9.35;1.92;;;13.70;99.90;;;;;;5096467;28;20470;-41
2022/10/24 01:53:11;;;;;;;17.25;2.28;;;13.90;99.90;;;;;;5097226;28;20422;-41
2022/10/24 01:55:38;;;;;;;11.73;1.70;;;13.90;99.90;;;;;;5096321;28;20474;-41
2022/10/24 01:58:06;;;;;;;12.05;2.33;;;14.00;99.90;;;;;;5096274;28;20048;-41
2022/10/24 02:00:32;;;;;;;10.98;1.50;;;14.00;99.90;;;;;;5096231;28;20127;-41
2022/10/24 02:03:03;;;;;;;13.15;2.17;;;14.10;99.90;;;;;;5096651;28;20048;-41
2022/10/24 02:05:38;;;;;;;5.15;1.80;;;14.10;99.90;;;;;;5096950;28;20048;-41
2022/10/24 02:08:08;;;;;;;5.68;2.10;;;14.20;99.90;;;;;;5096791;28;20133;-41
2022/10/24 02:10:38;;;;;;;11.30;1.80;;;14.20;99.90;;;;;;5096336;28;20056;-41
2022/10/24 02:13:23;;;;;;;8.27;1.73;;;14.20;99.90;;;;;;5096605;28;20188;-41
2022/10/24 02:15:54;;;;;;;10.45;2.00;;;14.10;99.90;;;;;;5095006;28;20470;-41
2022/10/24 02:18:20;;;;;;;14.43;2.15;;;14.20;99.90;;;;;;5096441;28;20040;-40
2022/10/24 02:21:31;;;;;;;11.13;1.80;;;14.20;99.90;;;;;;5095851;28;20405;-40
2022/10/24 02:24:08;;;;;;;7.50;1.80;;;14.20;99.90;;;;;;5078390;28;20379;-40
2022/10/24 02:26:51;;;;;;;10.95;2.10;;;14.20;99.90;;;;;;5095800;28;20044;-41
2022/10/24 02:29:26;;;;;;;7.95;2.03;;;14.20;99.90;;;;;;5095734;28;20051;-41
2022/10/24 02:31:57;;;;;;;6.22;2.35;;;14.20;99.90;;;;;;5095698;28;20093;-41
2022/10/24 02:34:27;;;;;;;13.30;2.33;;;14.30;99.90;;;;;;5095951;28;20132;-40
2022/10/24 02:36:55;;;;;;;15.80;2.10;;;14.40;99.90;;;;;;5095898;28;20035;-40
2022/10/24 02:39:22;;;;;;;6.72;1.63;;;14.40;99.90;;;;;;5096111;28;20079;-40
2022/10/24 02:41:50;;;;;;;8.52;2.58;;;14.40;99.90;;;;;;5095452;28;20048;-38
2022/10/24 02:44:18;;;;;;;6.72;2.15;;;14.40;99.90;;;;;;5094237;28;20044;-38
2022/10/24 02:46:46;;;;;;;6.63;2.65;;;14.40;99.90;;;;;;5096184;28;20048;-39
2022/10/24 02:49:12;;;;;;;10.63;1.83;;;14.40;99.90;;;;;;5094891;28;20356;-39
2022/10/24 02:51:41;;;;;;;12.98;3.38;;;14.40;99.90;;;;;;5095237;28;20036;-40
2022/10/24 02:54:07;;;;;;;22.70;2.83;;;14.40;99.90;;;;;;5095204;28;20153;-40
2022/10/24 02:56:35;;;;;;;9.38;2.00;;;14.40;99.90;;;;;;5095091;28;20127;-38
2022/10/24 02:59:01;;;;;;;22.23;2.22;;;14.40;99.90;;;;;;5094445;28;20083;-40
2022/10/24 03:01:27;;;;;;;11.65;2.28;;;14.40;99.90;;;;;;5094948;28;20087;-39
2022/10/24 03:03:53;;;;;;;7.82;2.03;;;14.30;99.90;;;;;;5094930;28;20051;-39
2022/10/24 03:06:18;;;;;;;14.68;2.28;;;14.30;99.90;;;;;;5077978;28;20052;-38
2022/10/24 03:08:44;;;;;;;10.15;2.38;;;14.30;99.90;;;;;;5095002;28;20123;-36
2022/10/24 03:11:10;;;;;;;10.55;2.15;;;14.40;99.90;;;;;;5095458;28;20101;-37
2022/10/24 03:13:36;;;;;;;27.05;2.00;;;14.40;99.90;;;;;;5095141;28;20147;-37
2022/10/24 03:16:03;;;;;;;32.63;2.78;;;14.50;99.90;;;;;;5094304;28;20131;-35
2022/10/24 03:18:29;;;;;;;6.60;1.90;;;14.60;99.90;;;;;;5094636;28;20122;-39
2022/10/24 03:20:55;;;;;;;13.90;2.80;;;14.80;99.90;;;;;;5095244;28;20047;-38
2022/10/24 03:23:21;;;;;;;11.43;2.15;;;14.80;99.90;;;;;;5094653;28;20055;-36
2022/10/24 03:25:47;;;;;;;7.68;1.70;;;14.70;99.90;;;;;;5094589;28;20118;-39
2022/10/24 03:28:13;;;;;;;14.55;1.95;;;14.80;99.90;;;;;;5094559;28;20044;-34
2022/10/24 03:30:38;;;;;;;20.98;1.70;;;14.90;99.90;;;;;;5094542;28;20528;-35
2022/10/24 03:33:04;;;;;;;13.25;2.60;;;14.90;99.90;;;;;;5094463;28;20046;-36
2022/10/24 03:35:30;;;;;;;11.38;1.92;;;14.90;99.90;;;;;;5094424;28;20178;-34
2022/10/24 03:37:55;;;;;;;20.80;2.30;;;14.80;99.90;;;;;;5092914;28;20063;-34
2022/10/24 03:40:21;;;;;;;23.92;2.35;;;14.80;99.90;;;;;;5093161;28;20063;-35
2022/10/24 03:42:47;;;;;;;17.13;2.28;;;14.70;99.90;;;;;;5094849;28;20458;-34
2022/10/24 03:45:12;;;;;;;10.48;1.80;;;14.70;99.90;;;;;;5094544;28;20135;-34
2022/10/24 03:47:38;;;;;;;10.93;1.88;;;14.70;99.90;;;;;;5093855;28;20035;-35
2022/10/24 03:50:05;;;;;;;10.73;1.90;;;14.70;99.90;;;;;;5076104;28;20490;-34
2022/10/24 03:52:31;;;;;;;9.27;2.15;;;14.60;99.90;;;;;;5093155;28;20054;-33
2022/10/24 03:54:56;;;;;;;14.40;1.80;;;14.70;99.90;;;;;;5093534;28;20040;-33
2022/10/24 03:57:22;;;;;;;11.70;1.65;;;14.70;99.90;;;;;;5093796;28;20047;-33
2022/10/24 03:59:48;;;;;;;10.43;2.00;;;14.80;99.90;;;;;;5094622;28;20048;-33
2022/10/24 04:02:14;;;;;;;9.25;1.55;;;14.90;99.90;;;;;;5092788;28;20048;-33
2022/10/24 04:04:40;;;;;;;8.75;1.63;;;15.00;99.90;;;;;;5092831;28;20051;-33
2022/10/24 04:07:06;;;;;;;24.05;3.15;;;15.00;99.90;;;;;;5092788;28;20108;-34
2022/10/24 04:09:32;;;;;;;10.68;1.95;;;15.00;99.90;;;;;;5093967;28;20044;-33
2022/10/24 04:11:58;;;;;;;11.50;1.90;;;15.10;99.90;;;;;;5094731;28;20484;-34
2022/10/24 04:14:23;;;;;;;11.70;2.22;;;15.10;99.90;;;;;;5093895;28;20080;-34
2022/10/24 04:16:49;;;;;;;16.58;2.92;;;15.10;99.90;;;;;;5093773;28;20043;-33
2022/10/24 04:19:18;;;;;;;10.13;2.42;;;15.10;99.90;;;;;;5094109;28;20145;-33
2022/10/24 04:21:46;;;;;;;13.32;1.77;;;15.00;99.90;;;;;;5093777;28;20040;-33
2022/10/24 04:24:13;;;;;;;15.20;2.35;;;14.90;99.90;;;;;;5093753;28;20141;-34
2022/10/24 04:26:41;;;;;;;13.25;1.95;;;14.80;99.90;;;;;;5093730;28;20047;-33
2022/10/24 04:29:06;;;;;;;12.45;1.90;;;14.60;99.90;;;;;;5096342;28;20050;-33
2022/10/24 04:31:32;;;;;;;9.45;1.90;;;14.60;99.90;;;;;;5080109;28;20390;-33
2022/10/24 04:33:58;;;;;;;21.58;2.20;;;14.50;99.90;;;;;;5097936;28;20048;-33
2022/10/24 04:36:24;;;;;;;10.23;1.77;;;14.40;99.90;;;;;;5097790;28;20048;-33
2022/10/24 04:38:49;;;;;;;12.07;1.98;;;14.30;99.90;;;;;;5096475;28;20052;-33
2022/10/24 04:41:15;;;;;;;9.32;1.73;;;14.30;99.90;;;;;;5097747;28;20083;-33
2022/10/24 04:43:40;;;;;;;15.35;1.90;;;14.20;99.90;;;;;;5098012;28;20052;-32
2022/10/24 04:46:07;;;;;;;7.65;1.48;;;14.20;99.90;;;;;;5096723;28;20044;-32
2022/10/24 04:48:33;;;;;;;13.38;1.80;;;14.30;99.90;;;;;;5097607;28;20047;-32
2022/10/24 04:50:58;;;;;;;15.50;2.25;;;14.20;99.90;;;;;;5097887;28;20044;-33
2022/10/24 04:53:24;;;;;;;20.00;1.88;;;14.20;99.90;;;;;;5080585;28;20450;-32
2022/10/24 04:55:50;;;;;;;12.20;1.95;;;14.20;99.90;;;;;;5097810;28;20468;-32
2022/10/24 04:58:16;;;;;;;6.80;1.65;;;14.20;99.90;;;;;;5097423;28;20067;-32
2022/10/24 05:00:45;;;;;;;22.75;2.42;;;14.20;99.90;;;;;;5096258;28;20040;-33
2022/10/24 05:03:11;;;;;;;18.23;2.75;;;14.20;99.90;;;;;;5097297;28;20048;-32
2022/10/24 05:05:37;;;;;;;9.70;1.88;;;14.20;99.90;;;;;;5097019;28;20508;-33
2022/10/24 05:08:03;;;;;;;9.45;2.30;;;14.20;99.90;;;;;;5097259;28;20036;-32
2022/10/24 05:10:29;;;;;;;14.93;1.92;;;14.20;99.90;;;;;;5097780;28;20055;-32
2022/10/24 05:12:55;;;;;;;19.90;1.80;;;14.30;99.90;;;;;;5097222;28;20123;-32
2022/10/24 05:15:21;;;;;;;4.32;1.42;;;14.30;99.90;;;;;;5097107;28;20464;-32
2022/10/24 05:17:47;;;;;;;12.07;2.53;;;14.30;99.90;;;;;;5097274;28;20050;-32
2022/10/24 05:20:12;;;;;;;8.88;2.15;;;14.40;99.90;;;;;;5097038;28;20478;-31
2022/10/24 05:22:39;;;;;;;12.88;1.67;;;14.40;99.90;;;;;;5097012;28;20051;-32
2022/10/24 05:25:05;;;;;;;7.80;1.45;;;14.40;99.90;;;;;;5095750;28;20482;-31
2022/10/24 05:27:31;;;;;;;15.98;1.50;;;14.30;99.90;;;;;;5096915;28;20036;-32
2022/10/24 05:29:56;;;;;;;4.75;1.30;;;14.30;99.90;;;;;;5078425;28;20124;-32
2022/10/24 05:32:23;;;;;;;10.93;1.35;;;14.40;99.90;;;;;;5096677;28;20049;-32
2022/10/24 05:34:50;;;;;;;6.00;1.25;;;14.30;99.90;;;;;;5097074;28;20044;-32
2022/10/24 05:37:16;;;;;;;5.03;1.30;;;14.30;99.90;;;;;;5096331;28;20060;-32
2022/10/24 05:39:42;;;;;;;6.28;1.70;;;14.30;99.90;;;;;;5097134;28;20052;-32
2022/10/24 05:42:09;;;;;;;7.40;1.83;;;14.30;99.90;;;;;;5095954;28;20054;-32
2022/10/24 05:44:35;;;;;;;9.05;1.30;;;14.40;99.90;;;;;;5096642;28;20052;-32
2022/10/24 05:47:01;;;;;;;11.82;1.40;;;14.40;99.90;;;;;;5096850;28;20044;-32
2022/10/24 05:49:27;;;;;;;8.30;1.65;;;14.40;99.90;;;;;;5096494;28;20477;-31
2022/10/24 05:51:52;;;;;;;8.52;1.20;;;14.40;99.90;;;;;;5096472;28;20080;-31
2022/10/24 05:54:18;;;;;;;11.30;1.65;;;14.50;99.90;;;;;;5078598;28;20489;-32
2022/10/24 05:56:44;;;;;;;9.85;1.73;;;14.50;99.90;;;;;;5096276;28;20094;-32
2022/10/24 05:59:10;;;;;;;10.07;1.75;;;14.50;99.90;;;;;;5095198;28;20047;-32
2022/10/24 06:01:35;;;;;;;11.05;1.55;;;14.50;99.90;;;;;;5096269;28;20123;-31
2022/10/24 06:04:01;;;;;;;7.60;1.23;;;14.50;99.90;;;;;;5096105;28;20040;-31
2022/10/24 06:06:27;;;;;;;5.38;1.00;;;14.50;99.90;;;;;;5095554;28;20043;-32
2022/10/24 06:08:53;;;;;;;8.32;1.10;;;14.50;99.90;;;;;;5095117;28;20048;-32
2022/10/24 06:11:19;;;;;;;24.20;1.77;;;14.50;99.90;;;;;;5078307;28;20123;-32
2022/10/24 06:13:45;;;;;;;9.35;1.65;;;14.50;99.90;;;;;;5095625;28;20138;-31
2022/10/24 06:16:11;;;;;;;8.70;1.50;;;14.50;99.90;;;;;;5095979;28;20044;-32
2022/10/24 06:18:38;;;;;;;5.85;1.10;;;14.60;99.90;;;;;;5077819;28;20694;-31
2022/10/24 06:21:05;;;;;;;11.63;1.35;;;14.50;99.90;;;;;;5095873;28;20043;-32
2022/10/24 06:23:31;;;;;;;9.07;1.80;;;14.40;99.90;;;;;;5095849;28;20051;-31
2022/10/24 06:25:57;;;;;;;4.40;1.00;;;14.30;99.90;;;;;;5095751;28;20130;-31
2022/10/24 06:28:24;;;;;;;8.25;1.52;;;14.20;99.90;;;;;;5095762;28;20089;-31
2022/10/24 06:30:51;;;;;;;9.45;1.38;;;14.20;99.90;;;;;;5095677;28;20050;-32
2022/10/24 06:33:17;;;;;;;9.90;1.48;;;14.20;99.90;;;;;;5095630;28;20052;-31
2022/10/24 06:35:42;;;;;;;15.77;1.77;;;14.10;99.90;;;;;;5094648;28;20044;-32
2022/10/24 06:38:08;;;;;;;12.20;1.63;;;14.20;99.90;;;;;;5095528;28;20051;-31
2022/10/24 06:40:36;;;;;;;13.48;1.50;;;14.20;99.90;;;;;;5095493;28;20101;-31
2022/10/24 06:43:02;;;;;;;11.32;1.40;;;14.20;99.90;;;;;;5095748;28;20393;-31
2022/10/24 06:45:27;;;;;;;8.80;1.00;;;14.20;99.90;;;;;;5096275;28;20044;-31
2022/10/24 06:47:53;;;;;;;9.18;1.45;;;14.40;99.90;;;;;;5095082;28;20489;-31
2022/10/24 06:50:19;;;;;;;11.00;1.20;;;14.40;99.90;;;;;;5095123;28;20055;-31
2022/10/24 06:52:44;;;;;;;13.20;1.42;;;14.50;99.90;;;;;;5094902;28;20482;-31
2022/10/24 06:55:10;;;;;;;15.07;1.23;;;14.60;99.90;;;;;;5095182;28;20141;-31
2022/10/24 06:57:36;;;;;;;11.27;1.67;;;14.70;99.90;;;;;;5095396;28;20075;-31
2022/10/24 07:00:04;;;;;;;14.90;1.80;;;14.70;99.90;;;;;;5095099;28;20138;-32
2022/10/24 07:02:29;;;;;;;12.43;1.02;;;14.80;1.00;;;;;;5093779;28;20413;-31
2022/10/24 07:04:56;;;;;;;6.93;1.02;;;14.80;1.00;;;;;;5094981;28;20048;-31
2022/10/24 07:07:22;;;;;;;15.55;1.60;;;14.80;46.40;;;;;;5094970;28;20044;-32
2022/10/24 07:09:56;;;;;;;13.35;1.30;;;14.80;1.00;;;;;;5093954;28;20048;-31
2022/10/24 07:12:23;;;;;;;14.73;2.00;;;14.80;1.00;;;;;;5095238;28;20055;-31
2022/10/24 07:14:49;;;;;;;10.52;1.30;;;14.80;1.00;;;;;;5094914;28;20097;-30
2022/10/24 07:17:15;;;;;;;9.02;1.63;;;14.80;1.00;;;;;;5094678;28;20036;-32
2022/10/24 07:19:41;;;;;;;11.40;1.98;;;14.80;1.00;;;;;;5094730;28;20047;-31
2022/10/24 07:22:07;;;;;;;6.75;1.13;;;14.90;1.00;;;;;;5095256;28;20067;-31
2022/10/24 07:24:33;;;;;;;20.38;1.90;;;15.00;1.00;;;;;;5095770;28;20131;-32
2022/10/24 07:26:59;;;;;;;10.38;1.15;;;15.00;1.00;;;;;;5095467;28;20044;-31
2022/10/24 07:29:25;;;;;;;5.90;1.02;;;15.10;99.90;;;;;;5094826;28;20493;-31
2022/10/24 07:31:50;;;;;;;4.40;1.10;;;15.20;1.00;;;;;;5094485;28;20086;-32
2022/10/24 07:34:17;;;;;;;15.02;1.52;;;15.20;1.00;;;;;;5094472;28;20052;-31
2022/10/24 07:36:42;;;;;;;9.30;1.92;;;15.30;99.90;;;;;;5095186;28;20040;-32
2022/10/24 07:39:08;;;;;;;7.63;1.42;;;15.40;99.90;;;;;;5094217;28;20375;-31
2022/10/24 07:41:39;;;;;;;4.93;1.52;;;15.50;1.00;;;;;;5073812;28;20044;-31
2022/10/24 07:44:05;;;;;;;10.45;1.20;;;15.50;14.40;;;;;;5074091;28;20083;-31
2022/10/24 07:46:31;;;;;;;7.45;1.23;;;15.60;1.00;;;;;;5074852;28;20087;-30
2022/10/24 07:48:57;;;;;;;3.03;0.98;;;15.60;99.90;;;;;;5073000;28;20395;-31
2022/10/24 07:51:22;;;;;;;3.78;0.90;;;15.70;1.00;;;;;;5074802;28;20382;-32
2022/10/24 07:53:48;;;;;;;8.70;1.17;;;15.70;99.90;;;;;;5074729;28;20045;-31
2022/10/24 07:56:15;;;;;;;6.20;1.10;;;15.70;99.90;;;;;;5074998;28;20074;-31
2022/10/24 07:58:43;;;;;;;12.35;1.52;;;15.70;99.90;;;;;;5073785;28;20049;-32
2022/10/24 08:01:13;;;;;;;7.20;1.50;;;15.70;99.90;;;;;;5073799;28;20048;-31
2022/10/24 08:03:38;;;;;;;7.57;0.98;;;15.70;99.90;;;;;;5073592;28;20123;-30
2022/10/24 08:06:07;;;;;;;6.90;0.80;;;15.80;1.00;;;;;;5073774;28;20490;-32
2022/10/24 08:08:33;;;;;;;8.35;1.42;;;15.90;1.00;;;;;;5074397;28;20048;-31
2022/10/24 08:10:59;;;;;;;6.10;0.80;;;15.90;99.90;;;;;;5073738;28;20399;-31
2022/10/24 08:13:25;;;;;;;6.97;1.05;;;15.90;99.90;;;;;;5073668;28;20479;-31
2022/10/24 08:15:50;;;;;;;4.60;0.88;;;16.00;99.90;;;;;;5072587;28;20056;-31
2022/10/24 08:18:16;;;;;;;8.55;1.42;;;16.00;99.90;;;;;;5073603;28;20040;-32
2022/10/24 08:20:42;;;;;;;7.30;1.33;;;16.00;99.90;;;;;;5073650;28;20076;-32
2022/10/24 08:23:08;;;;;;;8.73;0.85;;;15.90;99.90;;;;;;5073599;28;20047;-31
2022/10/24 08:25:34;;;;;;;7.80;1.10;;;15.90;99.90;;;;;;5073629;28;20058;-32
2022/10/24 08:27:59;;;;;;;6.47;1.20;;;15.80;1.00;;;;;;5073583;28;20398;-31
2022/10/24 08:30:25;;;;;;;9.73;1.73;;;15.60;99.90;;;;;;5072323;28;20045;-31
2022/10/24 08:32:51;;;;;;;5.85;0.77;;;15.50;99.90;;;;;;5055850;28;20076;-31
2022/10/24 08:35:18;;;;;;;14.52;1.70;;;15.60;99.90;;;;;;5073565;28;20049;-30
2022/10/24 08:37:44;;;;;;;10.50;1.17;;;15.60;99.90;;;;;;5072823;28;20554;-30
2022/10/24 08:40:18;;;;;;;7.40;1.02;;;15.60;99.90;;;;;;5073412;28;20048;-32
2022/10/24 08:42:45;;;;;;;9.02;1.10;;;15.60;99.90;;;;;;5073433;28;20101;-31
2022/10/24 08:45:37;;;;;;;9.80;1.20;;;15.60;1.00;;;;;;5073660;28;20478;-31
2022/10/24 08:48:16;;;;;;;7.70;1.20;;;15.80;1.00;;;;;;5050669;28;20078;-31
2022/10/24 08:50:49;;;;;;;6.70;0.93;;;15.90;99.90;;;;;;5072243;28;20048;-30
2022/10/24 08:53:19;;;;;;;;;;;16.00;1.00;;;;;;5074380;28;20080;-32
2022/10/24 08:55:52;;;;;;;6.88;1.15;;;15.90;1.00;;;;;;5073892;28;19928;-31
2022/10/24 08:58:26;;;;;;;9.43;1.13;;;16.00;1.00;;;;;;5073567;28;20040;-31
2022/10/24 09:00:55;;;;;;;7.82;0.95;;;15.90;99.90;;;;;;5073854;28;20083;-30
2022/10/24 09:03:44;;;;;;;8.48;0.73;;;16.00;99.90;;;;;;5055902;28;20076;-31
2022/10/24 09:06:17;;;;;;;8.82;1.23;;;16.00;99.90;;;;;;5073762;28;20453;-31
2022/10/24 09:09:11;;;;;;;5.35;0.90;;;15.90;1.00;;;;;;5073110;28;20095;-31
2022/10/24 09:11:56;;;;;;;12.75;1.30;;;15.80;1.00;;;;;;5073153;28;20044;-30
2022/10/24 09:14:25;;;;;;;21.35;1.48;;;16.30;99.90;;;;;;5074299;28;20044;-31
2022/10/24 09:16:56;;;;;;;6.15;1.13;;;16.90;99.90;;;;;;5076759;28;20040;-31
2022/10/24 09:19:25;;;;;;;12.90;0.98;;;17.30;1.00;;;;;;5077427;28;20048;-30
2022/10/24 09:21:53;;;;;;;13.48;1.40;;;17.50;1.00;;;;;;5076747;28;20127;-31
2022/10/24 09:24:38;;;;;;;10.75;1.40;;;17.60;27.40;;;;;;5076701;28;20052;-30
2022/10/24 09:27:09;;;;;;;8.07;1.05;;;17.60;1.00;;;;;;5076686;28;20047;-31
2022/10/24 09:29:34;;;;;;;6.78;1.00;;;17.70;1.00;;;;;;5076678;28;20041;-32
2022/10/24 09:32:01;;;;;;;4.68;1.05;;;17.50;1.00;;;;;;5075419;28;20044;-30
2022/10/24 09:34:27;;;;;;;4.97;0.85;;;17.50;1.00;;;;;;5076527;28;20123;-31
2022/10/24 09:36:53;;;;;;;4.57;1.10;;;17.80;99.90;;;;;;5076644;28;20128;-32
2022/10/24 09:39:31;;;;;;;10.73;1.30;;;18.10;56.10;;;;;;5075141;28;20054;-30
2022/10/24 09:41:58;;;;;;;7.25;1.48;;;18.40;99.90;;;;;;5077040;28;20092;-30
2022/10/24 09:44:29;;;;;;;9.75;1.10;;;18.40;99.90;;;;;;5076894;28;20052;-31
2022/10/24 09:46:55;;;;;;;12.73;2.70;;;18.50;74.90;;;;;;5076292;28;20049;-31
2022/10/24 09:49:24;;;;;;;4.60;0.93;;;17.90;99.90;;;;;;5076306;28;20045;-31
2022/10/24 09:52:02;;;;;;;5.25;0.82;;;17.50;1.00;;;;;;5076192;28;20040;-31
2022/10/24 09:54:31;;;;;;;4.55;0.93;;;17.30;99.90;;;;;;5077054;28;20048;-31
2022/10/24 09:57:13;;;;;;;5.43;1.20;;;17.10;1.00;;;;;;5076067;28;20048;-30
2022/10/24 10:00:05;;;;;;;8.52;1.65;;;17.00;99.90;;;;;;5076997;28;20428;-31
2022/10/24 10:02:33;;;;;;;12.57;1.30;;;16.80;99.90;;;;;;5075973;28;20125;-30
2022/10/24 10:05:02;;;;;;;5.38;0.73;;;16.60;1.00;;;;;;5075019;28;20078;-31
2022/10/24 10:07:33;;;;;;;8.50;1.20;;;16.50;99.90;;;;;;5075243;28;20080;-31
2022/10/24 10:10:23;;;;;;;8.45;1.13;;;16.40;99.90;;;;;;5076226;28;20402;-30
2022/10/24 10:13:23;;;;;;;10.48;1.67;;;16.40;1.00;;;;;;5072805;28;20052;-30
2022/10/24 10:15:55;;;;;;;5.20;0.90;;;16.30;1.00;;;;;;5075829;28;20044;-30
2022/10/24 10:18:25;;;;;;;7.10;1.17;;;16.20;99.90;;;;;;5074262;28;20036;-29
2022/10/24 10:21:03;;;;;;;8.90;1.67;;;16.20;99.90;;;;;;5075715;28;20745;-30
2022/10/24 10:23:36;;;;;;;10.00;1.45;;;16.30;1.00;;;;;;5075691;28;20044;-29
2022/10/24 10:26:26;;;;;;;17.33;1.75;;;16.40;99.90;;;;;;5074326;28;20048;-29
2022/10/24 10:28:54;;;;;;;6.65;1.40;;;16.60;99.90;;;;;;5075835;28;20127;-30
2022/10/24 10:31:43;;;;;;;11.95;1.67;;;16.50;99.90;;;;;;5074356;28;20040;-29
2022/10/24 10:34:21;;;;;;;9.55;1.52;;;16.30;99.90;;;;;;5075122;28;20139;-30
2022/10/24 10:36:55;;;;;;;12.10;2.45;;;16.20;4.80;;;;;;5075357;28;20106;-30
2022/10/24 10:39:21;;;;;;;9.32;1.33;;;16.10;99.90;;;;;;5076582;28;20092;-29
2022/10/24 10:41:48;;;;;;;7.38;0.93;;;16.20;1.00;;;;;;5075545;28;20507;-30
2022/10/24 10:44:32;;;;;;;10.63;1.40;;;15.90;1.00;;;;;;5076068;28;20050;-30
2022/10/24 10:47:01;;;;;;;13.90;0.90;;;15.70;99.90;;;;;;5074875;28;20516;-30
2022/10/24 10:49:29;;;;;;;24.88;1.65;;;16.10;1.00;;;;;;5075418;28;20052;-30
2022/10/24 10:52:30;;;;;;;9.07;1.58;;;16.70;99.90;;;;;;5075112;28;20059;-30
2022/10/24 10:55:07;;;;;;;7.72;1.00;;;17.10;3.70;;;;;;5074387;28;20127;-31
2022/10/24 10:57:40;;;;;;;16.23;1.67;;;17.40;1.00;;;;;;5075458;28;20127;-30
2022/10/24 11:00:15;;;;;;;;;;;17.40;1.00;;;;;;5075322;28;20078;-30
2022/10/24 11:03:06;;;;;;;12.25;2.13;;;17.30;99.90;;;;;;5074714;28;19920;-31
2022/10/24 11:05:53;;;;;;;11.00;1.30;;;17.60;99.90;;;;;;5074720;28;20127;-31
2022/10/24 11:08:56;;;;;;;7.30;1.30;;;17.60;1.00;;;;;;5075026;28;20543;-30
2022/10/24 11:11:36;;;;;;;7.70;1.00;;;17.60;99.90;;;;;;5074615;28;20045;-30
2022/10/24 11:14:25;;;;;;;7.40;0.85;;;17.30;1.00;;;;;;5075429;28;20044;-29
2022/10/24 11:16:54;;;;;;;9.20;1.10;;;17.70;1.00;;;;;;5074737;28;20075;-30
2022/10/24 11:19:29;;;;;;;6.57;0.82;;;17.20;80.60;;;;;;5074490;28;20406;-30
2022/10/24 11:21:59;;;;;;;10.40;1.27;;;17.00;1.00;;;;;;5074528;28;20533;-30
2022/10/24 11:24:26;;;;;;;5.57;1.23;;;16.70;99.90;;;;;;5073843;28;20145;-30
2022/10/24 11:27:16;;;;;;;14.77;1.45;;;16.40;1.00;;;;;;5075141;28;20051;-29
2022/10/24 11:30:10;;;;;;;11.77;1.38;;;16.30;99.90;;;;;;5074297;28;20133;-30
2022/10/24 11:32:51;;;;;;;13.75;1.38;;;16.30;99.90;;;;;;5074916;28;20044;-30
2022/10/24 11:35:39;;;;;;;6.85;1.33;;;16.20;99.90;;;;;;5074537;28;20487;-30
2022/10/24 11:38:19;;;;;;;11.15;1.30;;;16.10;99.90;;;;;;5072484;28;20061;-30
2022/10/24 11:40:50;;;;;;;7.50;1.70;;;15.90;1.00;;;;;;5073159;28;20061;-30
2022/10/24 11:43:25;;;;;;;12.70;1.50;;;15.80;99.90;;;;;;5074973;28;20044;-30
2022/10/24 11:46:00;;;;;;;8.98;1.00;;;16.20;99.90;;;;;;5074966;28;20056;-30
2022/10/24 11:48:34;;;;;;;10.10;1.90;;;16.40;1.00;;;;;;5074646;28;20447;-29
2022/10/24 11:51:05;;;;;;;10.07;1.08;;;16.60;99.90;;;;;;5073937;28;20044;-30
2022/10/24 11:53:33;;;;;;;17.42;1.90;;;16.90;1.00;;;;;;5074287;28;20146;-30
2022/10/24 11:56:10;;;;;;;15.38;1.73;;;16.80;1.00;;;;;;5074501;28;20052;-30
2022/10/24 11:58:55;;;;;;;6.75;1.33;;;16.70;99.90;;;;;;5072958;28;20533;-30
2022/10/24 12:01:58;;;;;;;9.43;1.48;;;16.60;99.90;;;;;;5072697;28;20080;-29
2022/10/24 12:05:12;;;;;;;10.85;1.23;;;16.50;99.90;;;;;;5073802;28;20052;-30
2022/10/24 12:07:44;;;;;;;5.30;1.17;;;16.50;99.90;;;;;;5051450;28;20529;-29
2022/10/24 12:10:31;;;;;;;18.15;1.25;;;16.40;1.00;;;;;;5070386;28;20084;-29
2022/10/24 12:13:19;;;;;;;10.45;1.27;;;16.80;99.90;;;;;;5073719;28;20044;-30
2022/10/24 12:16:11;;;;;;;15.98;2.92;;;17.10;99.90;;;;;;5073691;28;20074;-30
2022/10/24 12:18:46;;;;;;;6.05;1.75;;;17.30;99.90;;;;;;5073311;28;20109;-29
2022/10/24 12:21:16;;;;;;;9.80;1.58;;;17.00;1.00;;;;;;5072501;28;20041;-29
2022/10/24 12:23:52;;;;;;;6.80;1.38;;;16.80;1.00;;;;;;5073643;28;20047;-29
2022/10/24 12:26:30;;;;;;;7.57;1.55;;;16.60;42.20;;;;;;5073225;28;20374;-29
2022/10/24 12:29:17;;;;;;;11.95;1.30;;;16.60;1.00;;;;;;5073610;28;20398;-30
2022/10/24 12:31:43;;;;;;;10.32;1.20;;;16.70;5.40;;;;;;5073650;28;20084;-29
2022/10/24 12:34:18;;;;;;;6.40;1.60;;;16.90;99.90;;;;;;5074363;28;20092;-30
2022/10/24 12:37:08;;;;;;;7.25;1.25;;;16.90;1.00;;;;;;5073400;28;20086;-29
2022/10/24 12:39:36;;;;;;;12.68;2.83;;;16.60;99.90;;;;;;5074112;28;20135;-30
2022/10/24 12:42:03;;;;;;;8.48;0.95;;;16.50;1.00;;;;;;5074266;28;20113;-30
2022/10/24 12:44:32;;;;;;;5.25;0.80;;;16.30;1.00;;;;;;5073277;28;20148;-29
2022/10/24 12:46:59;;;;;;;10.30;1.50;;;16.00;99.90;;;;;;5073410;28;20040;-29
2022/10/24 12:49:27;;;;;;;21.55;2.80;;;16.00;1.00;;;;;;5074682;28;20055;-30
2022/10/24 12:51:54;;;;;;;7.30;1.58;;;15.90;96.20;;;;;;5076414;28;20051;-30
2022/10/24 12:54:38;;;;;;;18.25;1.35;;;15.80;99.90;;;;;;5077852;28;20486;-28
2022/10/24 12:57:03;;;;;;;9.77;1.15;;;15.60;62.50;;;;;;5077861;28;20047;-31
2022/10/24 12:59:43;;;;;;;11.85;0.95;;;15.40;99.90;;;;;;5077211;28;20048;-28
2022/10/24 13:02:12;;;;;;;5.55;0.93;;;15.30;99.90;;;;;;5077376;28;20040;-28
2022/10/24 13:04:43;;;;;;;7.82;1.10;;;15.40;99.90;;;;;;5077716;28;20052;-29